<?xml version="1.0" encoding="UTF-8" standalone="no" ?>
<gpx xmlns="http://www.topografix.com/GPX/1/1" xmlns:xsi="http://www.w3.org/2001/XMLSchema-instance" xsi:schemaLocation="http://www.topografix.com/GPX/1/1 http://www.topografix.com/GPX/1/1/gpx.xsd" version="1.1" creator="VisuGPX - https://www.visugpx.com">
  <metadata>
    <name>Velo</name>
    <desc><![CDATA[idor:10246719_102515280_10794639_12973163_1418743_13428926_12998252_13558460_14716825_14357364_14251590]]></desc>
  </metadata>
  <trk>
    <name><![CDATA[Gesvrine_OrvaultTourChapelle_28km-14716825]]></name>
    <extensions>
      <line xmlns="http://www.topografix.com/GPX/gpx_style/0/2">
        <color>888800</color>
        <width>4</width>
      </line>
    </extensions>
    <trkseg>
      <trkpt lat="47.26759" lon="-1.54546">
        <ele>28</ele>
        <time>2023-11-15T08:00:26Z</time>
      </trkpt>
      <trkpt lat="47.26339" lon="-1.54814">
        <ele>11</ele>
        <time>2023-11-15T08:10:37Z</time>
      </trkpt>
      <trkpt lat="47.25996" lon="-1.5557">
        <ele>8</ele>
        <time>2023-11-15T08:24:20Z</time>
      </trkpt>
      <trkpt lat="47.26096" lon="-1.56391">
        <ele>25</ele>
        <time>2023-11-15T08:36:56Z</time>
      </trkpt>
      <trkpt lat="47.26439" lon="-1.57397">
        <ele>34</ele>
        <time>2023-11-15T08:53:55Z</time>
      </trkpt>
      <trkpt lat="47.26235" lon="-1.58336">
        <ele>42</ele>
        <time>2023-11-15T09:08:48Z</time>
      </trkpt>
      <trkpt lat="47.26058" lon="-1.58662">
        <ele>39</ele>
        <time>2023-11-15T09:15:06Z</time>
      </trkpt>
      <trkpt lat="47.26186" lon="-1.59265">
        <ele>30</ele>
        <time>2023-11-15T09:24:38Z</time>
      </trkpt>
      <trkpt lat="47.26453" lon="-1.5976">
        <ele>28</ele>
        <time>2023-11-15T09:34:11Z</time>
      </trkpt>
      <trkpt lat="47.2672" lon="-1.60143">
        <ele>42</ele>
        <time>2023-11-15T09:42:28Z</time>
      </trkpt>
      <trkpt lat="47.269" lon="-1.61122">
        <ele>52</ele>
        <time>2023-11-15T09:57:47Z</time>
      </trkpt>
      <trkpt lat="47.26986" lon="-1.6176">
        <ele>48</ele>
        <time>2023-11-15T10:07:36Z</time>
      </trkpt>
      <trkpt lat="47.27205" lon="-1.62072">
        <ele>39</ele>
        <time>2023-11-15T10:14:22Z</time>
      </trkpt>
      <trkpt lat="47.27142" lon="-1.62322">
        <ele>41</ele>
        <time>2023-11-15T10:18:24Z</time>
      </trkpt>
      <trkpt lat="47.27537" lon="-1.62521">
        <ele>38</ele>
        <time>2023-11-15T10:27:41Z</time>
      </trkpt>
      <trkpt lat="47.27852" lon="-1.62403">
        <ele>44</ele>
        <time>2023-11-15T10:34:55Z</time>
      </trkpt>
      <trkpt lat="47.28216" lon="-1.62567">
        <ele>48</ele>
        <time>2023-11-15T10:43:22Z</time>
      </trkpt>
      <trkpt lat="47.28461" lon="-1.6248">
        <ele>51</ele>
        <time>2023-11-15T10:48:59Z</time>
      </trkpt>
      <trkpt lat="47.28759" lon="-1.62572">
        <ele>62</ele>
        <time>2023-11-15T10:55:45Z</time>
      </trkpt>
      <trkpt lat="47.2886" lon="-1.62898">
        <ele>50</ele>
        <time>2023-11-15T11:01:09Z</time>
      </trkpt>
      <trkpt lat="47.29078" lon="-1.62704">
        <ele>47</ele>
        <time>2023-11-15T11:06:49Z</time>
      </trkpt>
      <trkpt lat="47.29296" lon="-1.63">
        <ele>53</ele>
        <time>2023-11-15T11:13:25Z</time>
      </trkpt>
      <trkpt lat="47.29233" lon="-1.63159">
        <ele>53</ele>
        <time>2023-11-15T11:16:11Z</time>
      </trkpt>
      <trkpt lat="47.29628" lon="-1.63577">
        <ele>52</ele>
        <time>2023-11-15T11:27:00Z</time>
      </trkpt>
      <trkpt lat="47.30355" lon="-1.6247">
        <ele>66</ele>
        <time>2023-11-15T11:50:15Z</time>
      </trkpt>
      <trkpt lat="47.30621" lon="-1.62613">
        <ele>63</ele>
        <time>2023-11-15T11:56:33Z</time>
      </trkpt>
      <trkpt lat="47.31037" lon="-1.62495">
        <ele>51</ele>
        <time>2023-11-15T12:05:58Z</time>
      </trkpt>
      <trkpt lat="47.30964" lon="-1.62337">
        <ele>54</ele>
        <time>2023-11-15T12:08:51Z</time>
      </trkpt>
      <trkpt lat="47.30774" lon="-1.62266">
        <ele>63</ele>
        <time>2023-11-15T12:13:13Z</time>
      </trkpt>
      <trkpt lat="47.30912" lon="-1.61903">
        <ele>58</ele>
        <time>2023-11-15T12:19:29Z</time>
      </trkpt>
      <trkpt lat="47.30919" lon="-1.61765">
        <ele>55</ele>
        <time>2023-11-15T12:21:34Z</time>
      </trkpt>
      <trkpt lat="47.30663" lon="-1.61475">
        <ele>51</ele>
        <time>2023-11-15T12:28:45Z</time>
      </trkpt>
      <trkpt lat="47.30812" lon="-1.61071">
        <ele>36</ele>
        <time>2023-11-15T12:35:41Z</time>
      </trkpt>
      <trkpt lat="47.30791" lon="-1.60755">
        <ele>47</ele>
        <time>2023-11-15T12:40:29Z</time>
      </trkpt>
      <trkpt lat="47.30726" lon="-1.60262">
        <ele>58</ele>
        <time>2023-11-15T12:48:03Z</time>
      </trkpt>
      <trkpt lat="47.31349" lon="-1.59981">
        <ele>20</ele>
        <time>2023-11-15T13:02:32Z</time>
      </trkpt>
      <trkpt lat="47.3149" lon="-1.60132">
        <ele>26</ele>
        <time>2023-11-15T13:06:25Z</time>
      </trkpt>
      <trkpt lat="47.31552" lon="-1.59811">
        <ele>31</ele>
        <time>2023-11-15T13:11:27Z</time>
      </trkpt>
      <trkpt lat="47.31635" lon="-1.60061">
        <ele>39</ele>
        <time>2023-11-15T13:15:39Z</time>
      </trkpt>
      <trkpt lat="47.3195" lon="-1.59954">
        <ele>45</ele>
        <time>2023-11-15T13:22:50Z</time>
      </trkpt>
      <trkpt lat="47.32088" lon="-1.59826">
        <ele>46</ele>
        <time>2023-11-15T13:26:28Z</time>
      </trkpt>
      <trkpt lat="47.32158" lon="-1.59357">
        <ele>39</ele>
        <time>2023-11-15T13:33:42Z</time>
      </trkpt>
      <trkpt lat="47.3231" lon="-1.59484">
        <ele>40</ele>
        <time>2023-11-15T13:37:35Z</time>
      </trkpt>
      <trkpt lat="47.32569" lon="-1.59551">
        <ele>43</ele>
        <time>2023-11-15T13:43:26Z</time>
      </trkpt>
      <trkpt lat="47.32351" lon="-1.58606">
        <ele>42</ele>
        <time>2023-11-15T13:58:29Z</time>
      </trkpt>
      <trkpt lat="47.3187" lon="-1.57989">
        <ele>43</ele>
        <time>2023-11-15T14:12:40Z</time>
      </trkpt>
      <trkpt lat="47.31321" lon="-1.57368">
        <ele>39</ele>
        <time>2023-11-15T14:28:03Z</time>
      </trkpt>
      <trkpt lat="47.31448" lon="-1.57177">
        <ele>33</ele>
        <time>2023-11-15T14:32:05Z</time>
      </trkpt>
      <trkpt lat="47.31566" lon="-1.5732">
        <ele>33</ele>
        <time>2023-11-15T14:35:29Z</time>
      </trkpt>
      <trkpt lat="47.32023" lon="-1.57325">
        <ele>33</ele>
        <time>2023-11-15T14:45:39Z</time>
      </trkpt>
      <trkpt lat="47.32241" lon="-1.56626">
        <ele>25</ele>
        <time>2023-11-15T14:57:15Z</time>
      </trkpt>
      <trkpt lat="47.32241" lon="-1.5631">
        <ele>18</ele>
        <time>2023-11-15T15:02:00Z</time>
      </trkpt>
      <trkpt lat="47.32365" lon="-1.56223">
        <ele>15</ele>
        <time>2023-11-15T15:05:04Z</time>
      </trkpt>
      <trkpt lat="47.32324" lon="-1.55728">
        <ele>22</ele>
        <time>2023-11-15T15:12:35Z</time>
      </trkpt>
      <trkpt lat="47.31742" lon="-1.54672">
        <ele>24</ele>
        <time>2023-11-15T15:33:06Z</time>
      </trkpt>
      <trkpt lat="47.31635" lon="-1.54355">
        <ele>13</ele>
        <time>2023-11-15T15:38:26Z</time>
      </trkpt>
      <trkpt lat="47.3085" lon="-1.54253">
        <ele>17</ele>
        <time>2023-11-15T15:55:58Z</time>
      </trkpt>
      <trkpt lat="47.30331" lon="-1.54656">
        <ele>18</ele>
        <time>2023-11-15T16:09:01Z</time>
      </trkpt>
      <trkpt lat="47.29708" lon="-1.54871">
        <ele>27</ele>
        <time>2023-11-15T16:23:14Z</time>
      </trkpt>
      <trkpt lat="47.28586" lon="-1.54988">
        <ele>26</ele>
        <time>2023-11-15T16:48:15Z</time>
      </trkpt>
      <trkpt lat="47.27658" lon="-1.54814">
        <ele>38</ele>
        <time>2023-11-15T17:09:04Z</time>
      </trkpt>
      <trkpt lat="47.26838" lon="-1.5462">
        <ele>29</ele>
        <time>2023-11-15T17:27:32Z</time>
      </trkpt>
    </trkseg>
  </trk>
</gpx>